sensor_id;sensor_type;location;lat;lon;timestamp;temperature;humidity
10411;DHT22;5251;52.112;8.606;2023-01-05T00:00:54;13.50;99.90
10411;DHT22;5251;52.112;8.606;2023-01-05T00:03:20;13.40;99.90
10411;DHT22;5251;52.112;8.606;2023-01-05T00:05:46;13.40;99.90
10411;DHT22;5251;52.112;8.606;2023-01-05T00:08:12;13.40;99.90
10411;DHT22;5251;52.112;8.606;2023-01-05T00:10:37;13.30;99.90
10411;DHT22;5251;52.112;8.606;2023-01-05T00:13:21;13.30;99.90
10411;DHT22;5251;52.112;8.606;2023-01-05T00:16:13;13.20;99.90
10411;DHT22;5251;52.112;8.606;2023-01-05T00:18:57;13.10;99.90
10411;DHT22;5251;52.112;8.606;2023-01-05T00:21:41;13.10;99.90
10411;DHT22;5251;52.112;8.606;2023-01-05T00:24:26;13.10;99.90
10411;DHT22;5251;52.112;8.606;2023-01-05T00:26:51;13.00;99.90
10411;DHT22;5251;52.112;8.606;2023-01-05T00:29:17;13.00;99.90
10411;DHT22;5251;52.112;8.606;2023-01-05T00:31:42;13.00;99.90
10411;DHT22;5251;52.112;8.606;2023-01-05T00:34:08;13.00;99.90
10411;DHT22;5251;52.112;8.606;2023-01-05T00:36:33;13.00;99.90
10411;DHT22;5251;52.112;8.606;2023-01-05T00:38:59;13.00;99.90
10411;DHT22;5251;52.112;8.606;2023-01-05T00:41:24;13.00;99.90
10411;DHT22;5251;52.112;8.606;2023-01-05T00:43:50;13.00;99.90
10411;DHT22;5251;52.112;8.606;2023-01-05T00:46:15;13.00;99.90
10411;DHT22;5251;52.112;8.606;2023-01-05T00:48:41;13.00;99.90
10411;DHT22;5251;52.112;8.606;2023-01-05T00:51:07;13.00;99.90
10411;DHT22;5251;52.112;8.606;2023-01-05T00:53:32;13.00;99.90
10411;DHT22;5251;52.112;8.606;2023-01-05T00:55:58;13.00;99.90
10411;DHT22;5251;52.112;8.606;2023-01-05T00:58:24;13.00;99.90
10411;DHT22;5251;52.112;8.606;2023-01-05T01:00:49;13.00;99.90
10411;DHT22;5251;52.112;8.606;2023-01-05T01:03:15;13.00;99.90
10411;DHT22;5251;52.112;8.606;2023-01-05T01:05:40;13.00;99.90
10411;DHT22;5251;52.112;8.606;2023-01-05T01:08:06;13.00;99.90
10411;DHT22;5251;52.112;8.606;2023-01-05T01:10:32;13.00;99.90
10411;DHT22;5251;52.112;8.606;2023-01-05T01:12:57;12.90;99.90
10411;DHT22;5251;52.112;8.606;2023-01-05T01:15:23;12.90;99.90
10411;DHT22;5251;52.112;8.606;2023-01-05T01:17:48;12.90;99.90
10411;DHT22;5251;52.112;8.606;2023-01-05T01:20:14;12.90;99.90
10411;DHT22;5251;52.112;8.606;2023-01-05T01:22:39;12.80;99.90
10411;DHT22;5251;52.112;8.606;2023-01-05T01:25:05;12.80;99.90
10411;DHT22;5251;52.112;8.606;2023-01-05T01:27:31;12.80;99.90
10411;DHT22;5251;52.112;8.606;2023-01-05T01:29:57;12.80;99.90
10411;DHT22;5251;52.112;8.606;2023-01-05T01:32:23;12.80;99.90
10411;DHT22;5251;52.112;8.606;2023-01-05T01:34:51;12.80;99.90
10411;DHT22;5251;52.112;8.606;2023-01-05T01:37:16;12.80;99.90
10411;DHT22;5251;52.112;8.606;2023-01-05T01:39:42;12.80;99.90
10411;DHT22;5251;52.112;8.606;2023-01-05T01:42:15;12.80;99.90
10411;DHT22;5251;52.112;8.606;2023-01-05T01:45:03;12.80;99.90
10411;DHT22;5251;52.112;8.606;2023-01-05T01:47:43;12.80;99.90
10411;DHT22;5251;52.112;8.606;2023-01-05T01:50:14;12.90;99.90
10411;DHT22;5251;52.112;8.606;2023-01-05T01:52:44;12.90;99.90
10411;DHT22;5251;52.112;8.606;2023-01-05T01:55:10;12.90;99.90
10411;DHT22;5251;52.112;8.606;2023-01-05T01:57:37;12.90;99.90
10411;DHT22;5251;52.112;8.606;2023-01-05T02:00:06;12.90;99.90
10411;DHT22;5251;52.112;8.606;2023-01-05T02:02:33;13.00;99.90
10411;DHT22;5251;52.112;8.606;2023-01-05T02:05:02;12.90;99.90
10411;DHT22;5251;52.112;8.606;2023-01-05T02:07:32;13.00;99.90
10411;DHT22;5251;52.112;8.606;2023-01-05T02:09:58;13.00;99.90
10411;DHT22;5251;52.112;8.606;2023-01-05T02:21:05;13.00;99.90
10411;DHT22;5251;52.112;8.606;2023-01-05T02:29:22;13.00;99.90
10411;DHT22;5251;52.112;8.606;2023-01-05T02:32:01;13.00;99.90
10411;DHT22;5251;52.112;8.606;2023-01-05T02:34:39;13.00;99.90
10411;DHT22;5251;52.112;8.606;2023-01-05T02:37:14;13.00;99.90
10411;DHT22;5251;52.112;8.606;2023-01-05T02:39:56;13.10;99.90
10411;DHT22;5251;52.112;8.606;2023-01-05T02:42:23;13.10;99.90
10411;DHT22;5251;52.112;8.606;2023-01-05T02:44:49;13.10;99.90
10411;DHT22;5251;52.112;8.606;2023-01-05T02:50:00;13.10;99.90
10411;DHT22;5251;52.112;8.606;2023-01-05T02:52:29;13.10;99.90
10411;DHT22;5251;52.112;8.606;2023-01-05T02:55:06;13.10;99.90
10411;DHT22;5251;52.112;8.606;2023-01-05T02:57:39;13.10;99.90
10411;DHT22;5251;52.112;8.606;2023-01-05T03:00:34;13.20;99.90
10411;DHT22;5251;52.112;8.606;2023-01-05T03:05:45;13.20;99.90
10411;DHT22;5251;52.112;8.606;2023-01-05T03:08:13;13.20;99.90
10411;DHT22;5251;52.112;8.606;2023-01-05T03:11:07;13.20;99.90
10411;DHT22;5251;52.112;8.606;2023-01-05T03:14:20;13.20;99.90
10411;DHT22;5251;52.112;8.606;2023-01-05T03:16:49;13.20;99.90
10411;DHT22;5251;52.112;8.606;2023-01-05T03:19:18;13.20;99.90
10411;DHT22;5251;52.112;8.606;2023-01-05T03:22:12;13.20;99.90
10411;DHT22;5251;52.112;8.606;2023-01-05T03:24:58;13.20;99.90
10411;DHT22;5251;52.112;8.606;2023-01-05T03:27:44;13.20;99.90
10411;DHT22;5251;52.112;8.606;2023-01-05T03:30:48;13.10;99.90
10411;DHT22;5251;52.112;8.606;2023-01-05T03:33:45;13.20;99.90
10411;DHT22;5251;52.112;8.606;2023-01-05T03:36:38;13.10;99.90
10411;DHT22;5251;52.112;8.606;2023-01-05T03:39:07;13.10;99.90
10411;DHT22;5251;52.112;8.606;2023-01-05T03:41:35;13.10;99.90
10411;DHT22;5251;52.112;8.606;2023-01-05T03:44:01;13.10;99.90
10411;DHT22;5251;52.112;8.606;2023-01-05T03:46:26;13.10;99.90
10411;DHT22;5251;52.112;8.606;2023-01-05T03:48:52;13.00;99.90
10411;DHT22;5251;52.112;8.606;2023-01-05T03:51:18;13.00;99.90
10411;DHT22;5251;52.112;8.606;2023-01-05T03:53:43;13.00;99.90
10411;DHT22;5251;52.112;8.606;2023-01-05T03:56:09;13.00;99.90
10411;DHT22;5251;52.112;8.606;2023-01-05T03:58:35;13.00;99.90
10411;DHT22;5251;52.112;8.606;2023-01-05T04:01:01;12.90;99.90
10411;DHT22;5251;52.112;8.606;2023-01-05T04:03:26;12.90;99.90
10411;DHT22;5251;52.112;8.606;2023-01-05T04:05:52;12.80;99.90
10411;DHT22;5251;52.112;8.606;2023-01-05T04:08:17;12.90;99.90
10411;DHT22;5251;52.112;8.606;2023-01-05T04:10:43;12.80;99.90
10411;DHT22;5251;52.112;8.606;2023-01-05T04:13:08;12.80;99.90
10411;DHT22;5251;52.112;8.606;2023-01-05T04:15:34;12.80;99.90
10411;DHT22;5251;52.112;8.606;2023-01-05T04:17:59;12.80;99.90
10411;DHT22;5251;52.112;8.606;2023-01-05T04:20:25;15.00;99.90
10411;DHT22;5251;52.112;8.606;2023-01-05T04:22:51;12.90;99.90
10411;DHT22;5251;52.112;8.606;2023-01-05T04:25:16;12.80;99.90
10411;DHT22;5251;52.112;8.606;2023-01-05T04:27:42;12.90;99.90
10411;DHT22;5251;52.112;8.606;2023-01-05T04:30:08;12.80;99.90
10411;DHT22;5251;52.112;8.606;2023-01-05T04:32:34;12.80;99.90
10411;DHT22;5251;52.112;8.606;2023-01-05T04:35:00;12.80;99.90
10411;DHT22;5251;52.112;8.606;2023-01-05T04:37:26;12.80;99.90
10411;DHT22;5251;52.112;8.606;2023-01-05T04:39:51;12.90;99.90
10411;DHT22;5251;52.112;8.606;2023-01-05T04:42:17;12.80;99.90
10411;DHT22;5251;52.112;8.606;2023-01-05T04:44:43;12.80;99.90
10411;DHT22;5251;52.112;8.606;2023-01-05T04:47:09;12.80;99.90
10411;DHT22;5251;52.112;8.606;2023-01-05T04:49:34;12.70;99.90
10411;DHT22;5251;52.112;8.606;2023-01-05T04:52:00;12.80;99.90
10411;DHT22;5251;52.112;8.606;2023-01-05T04:54:26;12.70;99.90
10411;DHT22;5251;52.112;8.606;2023-01-05T04:56:51;12.70;99.90
10411;DHT22;5251;52.112;8.606;2023-01-05T04:59:17;12.70;99.90
10411;DHT22;5251;52.112;8.606;2023-01-05T05:01:42;12.70;99.90
10411;DHT22;5251;52.112;8.606;2023-01-05T05:04:08;12.70;99.90
10411;DHT22;5251;52.112;8.606;2023-01-05T05:06:34;12.70;99.90
10411;DHT22;5251;52.112;8.606;2023-01-05T05:08:59;12.70;99.90
10411;DHT22;5251;52.112;8.606;2023-01-05T05:11:25;12.70;99.90
10411;DHT22;5251;52.112;8.606;2023-01-05T05:13:50;12.70;99.90
10411;DHT22;5251;52.112;8.606;2023-01-05T05:16:16;12.70;99.90
10411;DHT22;5251;52.112;8.606;2023-01-05T05:18:42;12.70;99.90
10411;DHT22;5251;52.112;8.606;2023-01-05T05:21:07;12.80;99.90
10411;DHT22;5251;52.112;8.606;2023-01-05T05:23:33;12.80;99.90
10411;DHT22;5251;52.112;8.606;2023-01-05T05:25:58;12.80;99.90
10411;DHT22;5251;52.112;8.606;2023-01-05T05:28:24;12.70;99.90
10411;DHT22;5251;52.112;8.606;2023-01-05T05:30:53;12.80;99.90
10411;DHT22;5251;52.112;8.606;2023-01-05T05:33:20;12.80;99.90
10411;DHT22;5251;52.112;8.606;2023-01-05T05:35:46;12.80;99.90
10411;DHT22;5251;52.112;8.606;2023-01-05T05:38:11;12.80;99.90
10411;DHT22;5251;52.112;8.606;2023-01-05T05:40:37;12.80;99.90
10411;DHT22;5251;52.112;8.606;2023-01-05T05:43:02;12.80;99.90
10411;DHT22;5251;52.112;8.606;2023-01-05T05:45:28;12.80;99.90
10411;DHT22;5251;52.112;8.606;2023-01-05T05:47:54;12.80;99.90
10411;DHT22;5251;52.112;8.606;2023-01-05T05:50:19;12.80;99.90
10411;DHT22;5251;52.112;8.606;2023-01-05T05:52:45;12.80;99.90
10411;DHT22;5251;52.112;8.606;2023-01-05T05:55:11;12.80;99.90
10411;DHT22;5251;52.112;8.606;2023-01-05T05:57:36;12.80;99.90
10411;DHT22;5251;52.112;8.606;2023-01-05T06:00:03;12.80;99.90
10411;DHT22;5251;52.112;8.606;2023-01-05T06:02:29;12.80;99.90
10411;DHT22;5251;52.112;8.606;2023-01-05T06:04:54;12.80;99.90
10411;DHT22;5251;52.112;8.606;2023-01-05T06:07:20;12.80;99.90
10411;DHT22;5251;52.112;8.606;2023-01-05T06:09:46;12.70;99.90
10411;DHT22;5251;52.112;8.606;2023-01-05T06:12:11;12.80;99.90
10411;DHT22;5251;52.112;8.606;2023-01-05T06:14:37;12.80;99.90
10411;DHT22;5251;52.112;8.606;2023-01-05T06:17:02;12.80;99.90
10411;DHT22;5251;52.112;8.606;2023-01-05T06:19:28;12.80;99.90
10411;DHT22;5251;52.112;8.606;2023-01-05T06:21:53;12.80;99.90
10411;DHT22;5251;52.112;8.606;2023-01-05T06:24:19;12.80;99.90
10411;DHT22;5251;52.112;8.606;2023-01-05T06:26:44;12.80;99.90
10411;DHT22;5251;52.112;8.606;2023-01-05T06:29:10;12.80;99.90
10411;DHT22;5251;52.112;8.606;2023-01-05T06:31:36;12.80;99.90
10411;DHT22;5251;52.112;8.606;2023-01-05T06:34:02;12.80;99.90
10411;DHT22;5251;52.112;8.606;2023-01-05T06:36:27;12.80;99.90
10411;DHT22;5251;52.112;8.606;2023-01-05T06:38:53;12.90;99.90
10411;DHT22;5251;52.112;8.606;2023-01-05T06:41:18;12.80;99.90
10411;DHT22;5251;52.112;8.606;2023-01-05T06:43:44;12.80;99.90
10411;DHT22;5251;52.112;8.606;2023-01-05T06:46:09;12.80;99.90
10411;DHT22;5251;52.112;8.606;2023-01-05T06:48:35;12.80;99.90
10411;DHT22;5251;52.112;8.606;2023-01-05T06:51:01;12.80;99.90
10411;DHT22;5251;52.112;8.606;2023-01-05T06:53:26;12.80;99.90
10411;DHT22;5251;52.112;8.606;2023-01-05T06:55:52;12.80;99.90
10411;DHT22;5251;52.112;8.606;2023-01-05T06:58:17;12.80;99.90
10411;DHT22;5251;52.112;8.606;2023-01-05T07:00:43;12.80;99.90
10411;DHT22;5251;52.112;8.606;2023-01-05T07:03:12;12.70;99.90
10411;DHT22;5251;52.112;8.606;2023-01-05T07:05:37;12.80;99.90
10411;DHT22;5251;52.112;8.606;2023-01-05T07:08:03;12.80;99.90
10411;DHT22;5251;52.112;8.606;2023-01-05T07:10:29;12.80;99.90
10411;DHT22;5251;52.112;8.606;2023-01-05T07:12:54;12.70;99.90
10411;DHT22;5251;52.112;8.606;2023-01-05T07:15:20;12.70;99.90
10411;DHT22;5251;52.112;8.606;2023-01-05T07:17:46;12.70;99.90
10411;DHT22;5251;52.112;8.606;2023-01-05T07:20:11;12.70;99.90
10411;DHT22;5251;52.112;8.606;2023-01-05T07:22:37;12.70;99.90
10411;DHT22;5251;52.112;8.606;2023-01-05T07:25:03;12.70;99.90
10411;DHT22;5251;52.112;8.606;2023-01-05T07:27:28;12.70;99.90
10411;DHT22;5251;52.112;8.606;2023-01-05T07:29:54;12.70;99.90
10411;DHT22;5251;52.112;8.606;2023-01-05T07:32:19;12.70;99.90
10411;DHT22;5251;52.112;8.606;2023-01-05T07:34:45;12.70;99.90
10411;DHT22;5251;52.112;8.606;2023-01-05T07:37:11;12.70;99.90
10411;DHT22;5251;52.112;8.606;2023-01-05T07:39:36;12.70;99.90
10411;DHT22;5251;52.112;8.606;2023-01-05T07:42:02;12.70;99.90
10411;DHT22;5251;52.112;8.606;2023-01-05T07:44:27;12.70;99.90
10411;DHT22;5251;52.112;8.606;2023-01-05T07:46:53;12.70;99.90
10411;DHT22;5251;52.112;8.606;2023-01-05T07:49:19;12.70;99.90
10411;DHT22;5251;52.112;8.606;2023-01-05T07:51:44;12.60;99.90
10411;DHT22;5251;52.112;8.606;2023-01-05T07:54:10;12.60;99.90
10411;DHT22;5251;52.112;8.606;2023-01-05T07:56:35;12.60;99.90
10411;DHT22;5251;52.112;8.606;2023-01-05T07:59:01;12.60;99.90
10411;DHT22;5251;52.112;8.606;2023-01-05T08:01:27;12.60;99.90
10411;DHT22;5251;52.112;8.606;2023-01-05T08:03:52;12.50;99.90
10411;DHT22;5251;52.112;8.606;2023-01-05T08:06:18;12.50;99.90
10411;DHT22;5251;52.112;8.606;2023-01-05T08:08:45;12.50;99.90
10411;DHT22;5251;52.112;8.606;2023-01-05T08:11:12;12.50;99.90
10411;DHT22;5251;52.112;8.606;2023-01-05T08:13:40;12.50;99.90
10411;DHT22;5251;52.112;8.606;2023-01-05T08:16:25;12.50;99.90
10411;DHT22;5251;52.112;8.606;2023-01-05T08:18:51;12.50;99.90
10411;DHT22;5251;52.112;8.606;2023-01-05T08:21:17;12.50;99.90
10411;DHT22;5251;52.112;8.606;2023-01-05T08:23:43;12.50;99.90
10411;DHT22;5251;52.112;8.606;2023-01-05T08:26:16;12.50;99.90
10411;DHT22;5251;52.112;8.606;2023-01-05T08:28:42;12.60;99.90
10411;DHT22;5251;52.112;8.606;2023-01-05T08:31:17;12.60;99.90
10411;DHT22;5251;52.112;8.606;2023-01-05T08:33:43;12.60;99.90
10411;DHT22;5251;52.112;8.606;2023-01-05T08:36:12;12.60;99.90
10411;DHT22;5251;52.112;8.606;2023-01-05T08:38:38;12.50;99.90
10411;DHT22;5251;52.112;8.606;2023-01-05T08:41:04;12.60;99.90
10411;DHT22;5251;52.112;8.606;2023-01-05T08:43:30;12.60;99.90
10411;DHT22;5251;52.112;8.606;2023-01-05T08:45:55;12.60;99.90
10411;DHT22;5251;52.112;8.606;2023-01-05T08:48:21;12.60;99.90
10411;DHT22;5251;52.112;8.606;2023-01-05T08:50:46;12.50;99.90
10411;DHT22;5251;52.112;8.606;2023-01-05T08:53:12;12.60;99.90
10411;DHT22;5251;52.112;8.606;2023-01-05T08:55:37;12.70;99.90
10411;DHT22;5251;52.112;8.606;2023-01-05T08:58:03;12.70;99.90
10411;DHT22;5251;52.112;8.606;2023-01-05T09:00:31;12.70;99.90
10411;DHT22;5251;52.112;8.606;2023-01-05T09:02:57;12.70;99.90
10411;DHT22;5251;52.112;8.606;2023-01-05T09:05:22;12.80;99.90
10411;DHT22;5251;52.112;8.606;2023-01-05T09:07:48;12.80;99.90
10411;DHT22;5251;52.112;8.606;2023-01-05T09:10:13;12.80;99.90
10411;DHT22;5251;52.112;8.606;2023-01-05T09:12:39;12.80;99.90
10411;DHT22;5251;52.112;8.606;2023-01-05T09:15:05;12.90;99.90
10411;DHT22;5251;52.112;8.606;2023-01-05T09:17:31;12.90;99.90
10411;DHT22;5251;52.112;8.606;2023-01-05T09:19:57;12.90;99.90
10411;DHT22;5251;52.112;8.606;2023-01-05T09:22:23;12.90;99.90
10411;DHT22;5251;52.112;8.606;2023-01-05T09:24:48;13.00;99.90
10411;DHT22;5251;52.112;8.606;2023-01-05T09:27:14;13.00;99.90
10411;DHT22;5251;52.112;8.606;2023-01-05T09:29:40;13.00;99.90
10411;DHT22;5251;52.112;8.606;2023-01-05T09:32:05;13.00;99.90
10411;DHT22;5251;52.112;8.606;2023-01-05T09:34:31;13.10;99.90
10411;DHT22;5251;52.112;8.606;2023-01-05T09:36:57;13.10;99.90
10411;DHT22;5251;52.112;8.606;2023-01-05T09:39:23;13.10;99.90
10411;DHT22;5251;52.112;8.606;2023-01-05T09:41:52;13.20;99.90
10411;DHT22;5251;52.112;8.606;2023-01-05T09:44:31;13.20;99.90
10411;DHT22;5251;52.112;8.606;2023-01-05T09:47:19;13.20;99.90
10411;DHT22;5251;52.112;8.606;2023-01-05T09:49:48;13.30;99.90
10411;DHT22;5251;52.112;8.606;2023-01-05T09:52:15;13.30;99.90
10411;DHT22;5251;52.112;8.606;2023-01-05T09:54:43;13.30;99.90
10411;DHT22;5251;52.112;8.606;2023-01-05T09:57:18;13.40;99.90
10411;DHT22;5251;52.112;8.606;2023-01-05T09:59:59;13.30;99.90
10411;DHT22;5251;52.112;8.606;2023-01-05T10:04:52;13.50;99.90
10411;DHT22;5251;52.112;8.606;2023-01-05T10:07:33;13.50;99.90
10411;DHT22;5251;52.112;8.606;2023-01-05T10:10:07;13.50;99.90
10411;DHT22;5251;52.112;8.606;2023-01-05T10:12:48;13.60;99.90
10411;DHT22;5251;52.112;8.606;2023-01-05T10:15:44;13.60;99.90
10411;DHT22;5251;52.112;8.606;2023-01-05T10:18:15;13.60;99.90
10411;DHT22;5251;52.112;8.606;2023-01-05T10:26:30;13.70;99.90
10411;DHT22;5251;52.112;8.606;2023-01-05T10:42:56;13.90;99.90
10411;DHT22;5251;52.112;8.606;2023-01-05T10:45:28;14.00;99.90
10411;DHT22;5251;52.112;8.606;2023-01-05T10:47:55;14.00;99.90
10411;DHT22;5251;52.112;8.606;2023-01-05T10:50:40;14.00;99.90
10411;DHT22;5251;52.112;8.606;2023-01-05T10:53:13;14.00;99.90
10411;DHT22;5251;52.112;8.606;2023-01-05T10:56:04;14.00;99.90
10411;DHT22;5251;52.112;8.606;2023-01-05T10:58:32;14.10;99.90
10411;DHT22;5251;52.112;8.606;2023-01-05T11:03:48;14.10;99.90
10411;DHT22;5251;52.112;8.606;2023-01-05T11:06:26;14.10;99.90
10411;DHT22;5251;52.112;8.606;2023-01-05T11:08:53;14.20;99.90
10411;DHT22;5251;52.112;8.606;2023-01-05T11:11:24;14.20;99.90
10411;DHT22;5251;52.112;8.606;2023-01-05T11:13:55;14.20;99.90
10411;DHT22;5251;52.112;8.606;2023-01-05T11:16:26;14.20;99.90
10411;DHT22;5251;52.112;8.606;2023-01-05T11:19:15;14.20;99.90
10411;DHT22;5251;52.112;8.606;2023-01-05T11:21:42;14.20;99.90
10411;DHT22;5251;52.112;8.606;2023-01-05T11:24:38;14.30;99.90
10411;DHT22;5251;52.112;8.606;2023-01-05T11:29:45;14.30;99.90
10411;DHT22;5251;52.112;8.606;2023-01-05T11:32:30;14.40;99.90
10411;DHT22;5251;52.112;8.606;2023-01-05T11:34:56;14.40;99.90
10411;DHT22;5251;52.112;8.606;2023-01-05T11:37:24;14.40;99.90
10411;DHT22;5251;52.112;8.606;2023-01-05T11:39:53;14.30;99.90
10411;DHT22;5251;52.112;8.606;2023-01-05T11:45:34;14.40;99.90
10411;DHT22;5251;52.112;8.606;2023-01-05T11:48:05;14.40;99.90
10411;DHT22;5251;52.112;8.606;2023-01-05T11:50:45;14.40;99.90
10411;DHT22;5251;52.112;8.606;2023-01-05T11:53:34;14.40;99.90
10411;DHT22;5251;52.112;8.606;2023-01-05T11:58:35;14.50;99.90
10411;DHT22;5251;52.112;8.606;2023-01-05T12:04:05;14.60;99.90
10411;DHT22;5251;52.112;8.606;2023-01-05T12:06:49;14.60;99.90
10411;DHT22;5251;52.112;8.606;2023-01-05T12:09:27;14.60;99.90
10411;DHT22;5251;52.112;8.606;2023-01-05T12:17:12;14.70;99.90
10411;DHT22;5251;52.112;8.606;2023-01-05T12:20:06;14.80;99.90
10411;DHT22;5251;52.112;8.606;2023-01-05T12:22:52;14.80;99.90
10411;DHT22;5251;52.112;8.606;2023-01-05T12:25:39;14.80;99.90
10411;DHT22;5251;52.112;8.606;2023-01-05T12:34:14;14.90;99.90
10411;DHT22;5251;52.112;8.606;2023-01-05T12:42:55;14.90;99.90
10411;DHT22;5251;52.112;8.606;2023-01-05T12:48:16;15.00;99.90
10411;DHT22;5251;52.112;8.606;2023-01-05T12:56:29;15.00;99.90
10411;DHT22;5251;52.112;8.606;2023-01-05T13:01:41;15.00;99.90
10411;DHT22;5251;52.112;8.606;2023-01-05T13:06:56;15.00;99.90
10411;DHT22;5251;52.112;8.606;2023-01-05T13:09:26;15.00;99.90
10411;DHT22;5251;52.112;8.606;2023-01-05T13:12:03;15.00;99.90
10411;DHT22;5251;52.112;8.606;2023-01-05T13:14:34;15.00;99.90
10411;DHT22;5251;52.112;8.606;2023-01-05T13:17:06;15.00;99.90
10411;DHT22;5251;52.112;8.606;2023-01-05T13:19:50;15.00;99.90
10411;DHT22;5251;52.112;8.606;2023-01-05T13:22:27;14.90;99.90
10411;DHT22;5251;52.112;8.606;2023-01-05T13:25:13;14.90;99.90
10411;DHT22;5251;52.112;8.606;2023-01-05T13:27:41;14.80;99.90
10411;DHT22;5251;52.112;8.606;2023-01-05T13:30:32;14.70;99.90
10411;DHT22;5251;52.112;8.606;2023-01-05T13:44:52;14.40;99.90
10411;DHT22;5251;52.112;8.606;2023-01-05T13:47:24;14.30;99.90
10411;DHT22;5251;52.112;8.606;2023-01-05T13:50:31;14.30;99.90
10411;DHT22;5251;52.112;8.606;2023-01-05T13:55:50;14.30;99.90
10411;DHT22;5251;52.112;8.606;2023-01-05T14:00:51;14.10;99.90
10411;DHT22;5251;52.112;8.606;2023-01-05T14:03:26;14.10;99.90
10411;DHT22;5251;52.112;8.606;2023-01-05T14:05:55;14.10;99.90
10411;DHT22;5251;52.112;8.606;2023-01-05T14:11:25;14.00;99.90
10411;DHT22;5251;52.112;8.606;2023-01-05T14:14:02;14.00;99.90
10411;DHT22;5251;52.112;8.606;2023-01-05T14:24:37;14.00;99.90
10411;DHT22;5251;52.112;8.606;2023-01-05T14:27:17;14.00;99.90
10411;DHT22;5251;52.112;8.606;2023-01-05T14:32:25;14.00;99.90
10411;DHT22;5251;52.112;8.606;2023-01-05T14:35:06;13.90;99.90
10411;DHT22;5251;52.112;8.606;2023-01-05T14:40:30;13.90;99.90
10411;DHT22;5251;52.112;8.606;2023-01-05T14:42:58;13.90;99.90
10411;DHT22;5251;52.112;8.606;2023-01-05T14:45:30;13.90;99.90
10411;DHT22;5251;52.112;8.606;2023-01-05T14:47:58;13.90;99.90
10411;DHT22;5251;52.112;8.606;2023-01-05T14:57:57;13.80;99.90
10411;DHT22;5251;52.112;8.606;2023-01-05T15:00:39;13.70;99.90
10411;DHT22;5251;52.112;8.606;2023-01-05T15:03:20;13.70;99.90
10411;DHT22;5251;52.112;8.606;2023-01-05T15:11:11;13.60;99.90
10411;DHT22;5251;52.112;8.606;2023-01-05T15:13:46;13.60;99.90
10411;DHT22;5251;52.112;8.606;2023-01-05T15:17:21;13.50;99.90
10411;DHT22;5251;52.112;8.606;2023-01-05T15:31:13;13.40;99.90
10411;DHT22;5251;52.112;8.606;2023-01-05T15:36:19;13.40;99.90
10411;DHT22;5251;52.112;8.606;2023-01-05T15:38:46;13.40;99.90
10411;DHT22;5251;52.112;8.606;2023-01-05T15:41:14;13.40;99.90
10411;DHT22;5251;52.112;8.606;2023-01-05T15:43:42;13.40;99.90
10411;DHT22;5251;52.112;8.606;2023-01-05T15:46:09;13.30;99.90
10411;DHT22;5251;52.112;8.606;2023-01-05T15:48:43;13.30;99.90
10411;DHT22;5251;52.112;8.606;2023-01-05T15:51:10;13.30;99.90
10411;DHT22;5251;52.112;8.606;2023-01-05T15:53:52;13.30;99.90
10411;DHT22;5251;52.112;8.606;2023-01-05T15:56:36;13.30;99.90
10411;DHT22;5251;52.112;8.606;2023-01-05T15:59:20;13.30;99.90
10411;DHT22;5251;52.112;8.606;2023-01-05T16:01:46;13.30;99.90
10411;DHT22;5251;52.112;8.606;2023-01-05T16:04:13;13.30;99.90
10411;DHT22;5251;52.112;8.606;2023-01-05T16:06:39;13.20;99.90
10411;DHT22;5251;52.112;8.606;2023-01-05T16:09:18;13.30;99.90
10411;DHT22;5251;52.112;8.606;2023-01-05T16:11:47;13.20;99.90
10411;DHT22;5251;52.112;8.606;2023-01-05T16:14:37;13.20;99.90
10411;DHT22;5251;52.112;8.606;2023-01-05T16:17:17;13.20;99.90
10411;DHT22;5251;52.112;8.606;2023-01-05T16:19:56;13.20;99.90
10411;DHT22;5251;52.112;8.606;2023-01-05T16:22:30;13.20;99.90
10411;DHT22;5251;52.112;8.606;2023-01-05T16:25:19;13.20;99.90
10411;DHT22;5251;52.112;8.606;2023-01-05T16:28:10;13.20;99.90
10411;DHT22;5251;52.112;8.606;2023-01-05T16:30:37;13.20;99.90
10411;DHT22;5251;52.112;8.606;2023-01-05T16:38:11;13.20;99.90
10411;DHT22;5251;52.112;8.606;2023-01-05T16:45:43;13.10;99.90
10411;DHT22;5251;52.112;8.606;2023-01-05T16:51:09;13.10;99.90
10411;DHT22;5251;52.112;8.606;2023-01-05T16:54:04;13.10;99.90
10411;DHT22;5251;52.112;8.606;2023-01-05T16:58:57;13.10;99.90
10411;DHT22;5251;52.112;8.606;2023-01-05T17:01:32;13.10;99.90
10411;DHT22;5251;52.112;8.606;2023-01-05T17:03:58;13.10;99.90
10411;DHT22;5251;52.112;8.606;2023-01-05T17:06:26;13.10;99.90
10411;DHT22;5251;52.112;8.606;2023-01-05T17:08:55;13.10;99.90
10411;DHT22;5251;52.112;8.606;2023-01-05T17:11:21;13.10;99.90
10411;DHT22;5251;52.112;8.606;2023-01-05T17:13:51;13.00;99.90
10411;DHT22;5251;52.112;8.606;2023-01-05T17:16:17;13.00;99.90
10411;DHT22;5251;52.112;8.606;2023-01-05T17:18:43;13.00;99.90
10411;DHT22;5251;52.112;8.606;2023-01-05T17:21:13;13.00;99.90
10411;DHT22;5251;52.112;8.606;2023-01-05T17:23:46;13.00;99.90
10411;DHT22;5251;52.112;8.606;2023-01-05T17:26:34;13.00;99.90
10411;DHT22;5251;52.112;8.606;2023-01-05T17:29:01;13.00;99.90
10411;DHT22;5251;52.112;8.606;2023-01-05T17:31:26;12.90;99.90
10411;DHT22;5251;52.112;8.606;2023-01-05T17:33:52;12.90;99.90
10411;DHT22;5251;52.112;8.606;2023-01-05T17:36:20;12.90;99.90
10411;DHT22;5251;52.112;8.606;2023-01-05T17:38:46;12.80;99.90
10411;DHT22;5251;52.112;8.606;2023-01-05T17:41:12;12.80;99.90
10411;DHT22;5251;52.112;8.606;2023-01-05T17:43:38;12.80;99.90
10411;DHT22;5251;52.112;8.606;2023-01-05T17:46:05;12.80;99.90
10411;DHT22;5251;52.112;8.606;2023-01-05T17:48:30;12.70;99.90
10411;DHT22;5251;52.112;8.606;2023-01-05T17:50:56;12.60;99.90
10411;DHT22;5251;52.112;8.606;2023-01-05T17:53:22;12.60;99.90
10411;DHT22;5251;52.112;8.606;2023-01-05T17:55:47;12.50;99.90
10411;DHT22;5251;52.112;8.606;2023-01-05T17:58:13;12.40;99.90
10411;DHT22;5251;52.112;8.606;2023-01-05T18:00:40;12.30;99.90
10411;DHT22;5251;52.112;8.606;2023-01-05T18:03:11;12.30;99.90
10411;DHT22;5251;52.112;8.606;2023-01-05T18:05:40;12.20;99.90
10411;DHT22;5251;52.112;8.606;2023-01-05T18:08:06;12.20;99.90
10411;DHT22;5251;52.112;8.606;2023-01-05T18:10:31;12.10;99.90
10411;DHT22;5251;52.112;8.606;2023-01-05T18:12:57;12.10;99.90
10411;DHT22;5251;52.112;8.606;2023-01-05T18:15:22;12.10;99.90
10411;DHT22;5251;52.112;8.606;2023-01-05T18:17:48;12.10;99.90
10411;DHT22;5251;52.112;8.606;2023-01-05T18:20:14;12.00;99.90
10411;DHT22;5251;52.112;8.606;2023-01-05T18:22:40;12.00;99.90
10411;DHT22;5251;52.112;8.606;2023-01-05T18:25:06;12.10;99.90
10411;DHT22;5251;52.112;8.606;2023-01-05T18:27:32;12.10;99.90
10411;DHT22;5251;52.112;8.606;2023-01-05T18:30:03;12.10;99.90
10411;DHT22;5251;52.112;8.606;2023-01-05T18:32:29;12.10;99.90
10411;DHT22;5251;52.112;8.606;2023-01-05T18:34:54;12.10;99.90
10411;DHT22;5251;52.112;8.606;2023-01-05T18:37:20;12.20;99.90
10411;DHT22;5251;52.112;8.606;2023-01-05T18:39:45;12.20;99.90
10411;DHT22;5251;52.112;8.606;2023-01-05T18:42:11;12.20;99.90
10411;DHT22;5251;52.112;8.606;2023-01-05T18:44:37;12.20;99.90
10411;DHT22;5251;52.112;8.606;2023-01-05T18:47:03;12.30;99.90